Time;durP1;ratioP1;P1;durP2;ratioP2;P2;SDS_P1;SDS_P2;PMS_P1;PMS_P2;Temp;Humidity;BMP_temperature;BMP_pressure;BME280_temperature;BME280_humidity;BME280_pressure;Samples;Min_cycle;Max_cycle;Signal;HPM_P1;HPM_P2
2021/05/14 00:00:08;;;;;;;9.95;6.43;;;;;;;15.69;61.76;99347.31;5049218;28;20037;-22
2021/05/14 00:02:34;;;;;;;11.95;6.63;;;;;;;15.48;62.26;99371.53;5048636;28;20025;-22
2021/05/14 00:05:00;;;;;;;10.02;6.00;;;;;;;15.50;63.05;99357.81;5048994;28;20511;-22
2021/05/14 00:07:26;;;;;;;8.13;5.75;;;;;;;15.93;61.23;99361.03;5049531;28;20037;-22
2021/05/14 00:09:52;;;;;;;11.40;6.38;;;;;;;15.60;61.96;99360.50;5049119;28;20041;-22
2021/05/14 00:12:17;;;;;;;8.98;6.40;;;;;;;15.70;61.67;99372.34;5048918;28;20028;-22
2021/05/14 00:14:43;;;;;;;24.23;6.22;;;;;;;16.23;60.00;99365.56;5048458;28;20123;-22
2021/05/14 00:17:08;;;;;;;12.40;6.60;;;;;;;16.04;59.94;99346.53;5048955;28;20056;-22
2021/05/14 00:19:34;;;;;;;12.55;6.03;;;;;;;15.64;61.31;99363.47;5048641;28;20044;-22
2021/05/14 00:21:59;;;;;;;12.63;6.47;;;;;;;15.62;61.89;99354.88;5047599;28;20020;-22
2021/05/14 00:24:25;;;;;;;10.70;6.18;;;;;;;14.90;65.19;99344.06;5048605;28;20036;-22
2021/05/14 00:26:50;;;;;;;7.68;5.60;;;;;;;14.65;66.05;99347.47;5049046;28;20040;-22
2021/05/14 00:29:16;;;;;;;10.77;5.68;;;;;;;15.26;64.28;99358.34;5048657;28;20496;-22
2021/05/14 00:31:41;;;;;;;7.90;5.95;;;;;;;15.52;63.11;99363.72;5048677;28;20033;-21
2021/05/14 00:34:07;;;;;;;8.98;5.85;;;;;;;14.54;65.03;99361.88;5048607;28;20787;-22
2021/05/14 00:36:32;;;;;;;9.88;5.00;;;;;;;13.92;66.02;99372.28;5048601;28;20029;-21
2021/05/14 00:38:58;;;;;;;10.80;5.70;;;;;;;14.59;64.27;99361.94;5048739;28;20390;-21
2021/05/14 00:41:24;;;;;;;9.88;6.90;;;;;;;15.00;62.96;99356.72;5047121;28;20071;-22
2021/05/14 00:43:50;;;;;;;11.38;6.75;;;;;;;15.52;61.69;99377.16;5048633;28;20037;-22
2021/05/14 00:46:15;;;;;;;11.05;5.70;;;;;;;15.12;62.56;99378.75;5048097;28;20060;-22
2021/05/14 00:48:41;;;;;;;11.65;6.32;;;;;;;15.44;61.76;99375.00;5047938;28;20036;-22
2021/05/14 00:51:06;;;;;;;10.63;6.50;;;;;;;15.42;61.55;99374.47;5047926;28;20052;-22
2021/05/14 00:53:32;;;;;;;12.50;5.95;;;;;;;15.30;61.78;99371.25;5046948;28;20033;-22
2021/05/14 00:55:58;;;;;;;11.45;6.28;;;;;;;15.29;61.79;99356.22;5030282;28;20029;-23
2021/05/14 00:58:23;;;;;;;11.85;6.30;;;;;;;15.28;60.75;99366.13;5046635;28;20485;-22
2021/05/14 01:00:49;;;;;;;9.70;5.88;;;;;;;15.31;61.11;99380.94;5046820;28;20550;-23
2021/05/14 01:03:15;;;;;;;8.77;6.57;;;;;;;14.80;63.15;99376.25;5046348;28;20032;-22
2021/05/14 01:05:41;;;;;;;9.80;6.55;;;;;;;14.82;62.91;99356.09;5047735;28;20041;-22
2021/05/14 01:08:07;;;;;;;11.35;6.35;;;;;;;14.84;63.31;99377.31;5047976;28;20041;-22
2021/05/14 01:10:33;;;;;;;9.25;6.00;;;;;;;14.65;63.05;99368.94;5047611;28;20057;-21
2021/05/14 01:12:58;;;;;;;12.65;6.28;;;;;;;14.42;64.29;99383.56;5048081;28;20033;-23
2021/05/14 01:15:24;;;;;;;9.52;6.40;;;;;;;14.90;62.34;99372.78;5047888;28;20138;-22
2021/05/14 01:17:49;;;;;;;8.18;5.97;;;;;;;14.80;62.25;99366.31;5047774;28;20053;-22
2021/05/14 01:20:15;;;;;;;10.50;6.32;;;;;;;14.60;62.69;99364.34;5047353;28;20032;-22
2021/05/14 01:22:41;;;;;;;9.68;6.78;;;;;;;14.03;65.58;99352.50;5047871;28;20059;-22
2021/05/14 01:25:07;;;;;;;10.02;6.97;;;;;;;14.47;64.39;99368.28;5030134;28;20082;-22
2021/05/14 01:27:33;;;;;;;8.55;6.35;;;;;;;14.17;65.20;99371.63;5046896;28;20029;-23
2021/05/14 01:29:59;;;;;;;9.15;6.72;;;;;;;14.19;63.84;99355.28;5047523;28;20493;-22
2021/05/14 01:32:24;;;;;;;9.77;6.50;;;;;;;14.80;60.39;99371.66;5047205;28;20057;-22
2021/05/14 01:34:50;;;;;;;9.73;6.30;;;;;;;13.89;62.98;99374.66;5047314;28;20037;-22
2021/05/14 01:37:15;;;;;;;9.18;6.28;;;;;;;14.11;64.29;99364.63;5047520;28;20035;-22
2021/05/14 01:39:42;;;;;;;11.13;6.85;;;;;;;14.10;63.76;99354.16;5047383;28;20279;-23
2021/05/14 01:42:07;;;;;;;9.57;6.45;;;;;;;14.12;63.95;99362.72;5045939;28;20382;-22
2021/05/14 01:44:33;;;;;;;9.45;6.03;;;;;;;13.98;64.72;99357.84;5047212;28;20125;-22
2021/05/14 01:46:58;;;;;;;10.95;7.00;;;;;;;14.41;63.18;99366.66;5045982;28;20420;-22
2021/05/14 01:49:24;;;;;;;9.15;5.75;;;;;;;13.80;65.63;99368.97;5047137;28;20037;-21
2021/05/14 01:51:49;;;;;;;8.63;6.32;;;;;;;13.24;67.53;99372.78;5045822;28;20139;-22
2021/05/14 01:54:15;;;;;;;8.88;6.07;;;;;;;13.71;65.75;99357.09;5047467;28;20032;-23
2021/05/14 01:56:47;;;;;;;8.55;5.95;;;;;;;13.97;64.25;99374.19;5047077;28;20025;-22
2021/05/14 01:59:12;;;;;;;8.07;5.95;;;;;;;13.27;66.07;99350.81;5047230;28;20025;-22
2021/05/14 02:01:38;;;;;;;9.50;5.97;;;;;;;13.40;66.18;99359.53;5047077;28;20028;-21
2021/05/14 02:04:04;;;;;;;7.32;5.68;;;;;;;14.11;64.33;99382.59;5047513;28;20195;-21
2021/05/14 02:06:29;;;;;;;12.40;6.30;;;;;;;14.21;62.94;99367.34;5046910;28;20948;-22
2021/05/14 02:08:55;;;;;;;13.48;6.80;;;;;;;14.35;62.56;99364.22;5047121;28;20025;-22
2021/05/14 02:11:20;;;;;;;11.98;6.70;;;;;;;14.23;62.97;99361.75;5047179;28;20037;-21
2021/05/14 02:13:46;;;;;;;10.95;5.47;;;;;;;14.03;63.94;99373.94;5045954;28;20025;-22
2021/05/14 02:16:12;;;;;;;8.27;5.93;;;;;;;13.91;64.30;99384.06;5046641;28;20040;-22
2021/05/14 02:18:38;;;;;;;10.38;6.82;;;;;;;13.81;64.57;99400.06;5047311;28;20037;-22
2021/05/14 02:21:04;;;;;;;9.35;6.43;;;;;;;13.10;66.52;99395.66;5046928;28;20048;-21
2021/05/14 02:23:29;;;;;;;12.60;6.15;;;;;;;12.46;68.15;99372.97;5046920;28;20402;-22
2021/05/14 02:25:55;;;;;;;11.75;5.93;;;;;;;12.53;68.21;99393.38;5046889;28;20106;-22
2021/05/14 02:28:21;;;;;;;12.13;6.38;;;;;;;12.23;69.13;99389.22;5046754;28;20033;-22
2021/05/14 02:30:46;;;;;;;11.15;6.63;;;;;;;12.58;67.66;99402.25;5046758;28;20481;-22
2021/05/14 02:33:12;;;;;;;13.20;7.75;;;;;;;12.48;67.96;99396.78;5046757;28;20491;-22
2021/05/14 02:35:37;;;;;;;9.32;6.07;;;;;;;12.13;68.79;99411.28;5045932;28;20108;-22
2021/05/14 02:38:03;;;;;;;9.15;6.35;;;;;;;11.93;68.81;99416.31;5047205;28;20082;-22
2021/05/14 02:40:29;;;;;;;10.30;5.88;;;;;;;11.88;69.11;99421.56;5050699;28;20033;-22
2021/05/14 02:42:54;;;;;;;12.80;6.38;;;;;;;12.01;68.08;99402.53;5050748;28;20865;-22
2021/05/14 02:45:20;;;;;;;8.32;5.70;;;;;;;12.45;66.87;99416.81;5049188;28;20032;-22
2021/05/14 02:47:46;;;;;;;10.38;5.93;;;;;;;12.08;68.33;99413.88;5050526;28;20064;-22
2021/05/14 02:50:12;;;;;;;9.95;7.07;;;;;;;12.21;68.26;99431.44;5050523;28;20517;-22
2021/05/14 02:52:37;;;;;;;9.90;6.30;;;;;;;12.49;67.42;99419.81;5050817;28;20557;-22
2021/05/14 02:55:04;;;;;;;14.30;7.20;;;;;;;12.82;66.38;99432.25;5050505;28;20095;-23
2021/05/14 02:57:29;;;;;;;16.88;7.25;;;;;;;12.84;65.95;99430.13;5050427;28;20416;-22
2021/05/14 02:59:55;;;;;;;16.35;8.40;;;;;;;13.56;62.76;99433.59;5050338;28;20033;-23
2021/05/14 03:02:20;;;;;;;13.30;7.18;;;;;;;13.17;64.28;99439.09;5050011;28;20112;-22
2021/05/14 03:04:46;;;;;;;13.35;7.97;;;;;;;13.32;63.82;99440.34;5050363;28;20141;-22
2021/05/14 03:07:13;;;;;;;14.80;7.13;;;;;;;13.33;64.47;99444.66;5050173;28;20037;-22
2021/05/14 03:09:38;;;;;;;16.60;7.80;;;;;;;13.33;64.96;99445.44;5050212;28;20464;-22
2021/05/14 03:12:04;;;;;;;11.55;7.40;;;;;;;13.21;65.55;99453.59;5049019;28;20024;-23
2021/05/14 03:14:30;;;;;;;15.20;7.97;;;;;;;12.63;67.63;99463.06;5049900;28;20341;-22
2021/05/14 03:16:55;;;;;;;14.63;8.10;;;;;;;12.68;68.11;99456.97;5049975;28;20087;-22
2021/05/14 03:19:21;;;;;;;14.93;8.02;;;;;;;12.54;68.22;99448.47;5050059;28;20061;-22
2021/05/14 03:21:46;;;;;;;10.63;7.40;;;;;;;13.28;66.07;99469.47;5050211;28;20033;-22
2021/05/14 03:24:12;;;;;;;33.35;9.60;;;;;;;13.33;64.77;99471.44;5049906;28;20033;-22
2021/05/14 03:26:37;;;;;;;33.42;10.25;;;;;;;13.01;64.69;99461.38;5049883;28;20071;-22
2021/05/14 03:29:03;;;;;;;15.93;7.63;;;;;;;13.06;65.05;99466.81;5049934;28;20086;-22
2021/05/14 03:31:29;;;;;;;10.93;7.05;;;;;;;13.04;64.68;99450.19;5049901;28;20637;-22
2021/05/14 03:33:55;;;;;;;12.35;7.72;;;;;;;13.31;63.90;99462.84;5049986;28;20071;-22
2021/05/14 03:36:21;;;;;;;11.13;6.65;;;;;;;13.27;63.63;99457.13;5049528;28;20086;-23
2021/05/14 03:38:47;;;;;;;10.32;6.45;;;;;;;13.41;63.20;99442.31;5049674;28;20033;-22
2021/05/14 03:43:54;;;;;;;11.95;7.30;;;;;;;13.45;62.61;99470.22;5048800;28;20519;-22
2021/05/14 03:46:19;;;;;;;22.20;7.60;;;;;;;13.72;62.01;99469.41;5049390;28;20144;-22
2021/05/14 03:48:45;;;;;;;12.98;7.43;;;;;;;13.95;61.66;99478.16;5049662;28;20410;-22
2021/05/14 03:51:10;;;;;;;15.32;7.63;;;;;;;14.28;60.72;99474.41;5048604;28;20563;-22
2021/05/14 03:53:36;;;;;;;12.75;7.25;;;;;;;13.88;60.92;99472.22;5048153;28;20033;-22
2021/05/14 03:56:01;;;;;;;12.88;7.13;;;;;;;13.93;61.57;99486.47;5049464;28;20035;-22
2021/05/14 03:58:27;;;;;;;10.52;6.45;;;;;;;13.65;62.74;99458.91;5049228;28;20060;-21
2021/05/14 04:00:53;;;;;;;8.98;6.53;;;;;;;13.69;63.81;99469.09;5049488;28;20863;-22
2021/05/14 04:03:21;;;;;;;12.65;6.45;;;;;;;13.75;63.17;99446.63;5049154;28;20140;-21
2021/05/14 04:05:46;;;;;;;8.90;6.15;;;;;;;13.50;64.38;99480.16;5049274;28;20556;-22
2021/05/14 04:08:12;;;;;;;7.53;5.50;;;;;;;13.32;65.41;99481.34;5049037;28;20071;-22
2021/05/14 04:16:04;;;;;;;11.27;5.93;;;;;;;13.69;64.76;99485.16;5049017;28;20205;-21
2021/05/14 04:18:29;;;;;;;9.80;6.18;;;;;;;13.75;64.54;99468.06;5048692;28;20036;-20
2021/05/14 04:20:55;;;;;;;7.75;6.05;;;;;;;13.93;63.88;99488.34;5049059;28;20033;-21
2021/05/14 04:23:20;;;;;;;10.98;6.32;;;;;;;13.94;64.54;99487.28;5048676;28;20031;-21
2021/05/14 04:25:46;;;;;;;12.48;5.90;;;;;;;14.27;63.08;99487.00;5048959;28;20091;-21
2021/05/14 04:28:12;;;;;;;9.68;6.55;;;;;;;13.99;64.57;99485.44;5048806;28;20033;-21
2021/05/14 04:30:38;;;;;;;10.32;6.80;;;;;;;14.56;62.86;99483.19;5049124;28;20074;-22
2021/05/14 04:33:05;;;;;;;10.43;7.00;;;;;;;14.65;62.45;99481.66;5048815;28;20114;-22
2021/05/14 04:35:31;;;;;;;8.93;6.93;;;;;;;14.56;63.33;99472.47;5048606;28;20567;-22
2021/05/14 04:37:57;;;;;;;11.30;7.20;;;;;;;14.92;62.90;99492.25;5048359;28;20056;-22
2021/05/14 04:40:22;;;;;;;13.02;7.22;;;;;;;15.30;61.52;99487.56;5048215;28;20493;-22
2021/05/14 04:42:48;;;;;;;8.98;6.57;;;;;;;14.87;62.87;99484.16;5048165;28;20021;-21
2021/05/14 04:45:14;;;;;;;10.20;6.75;;;;;;;14.86;62.60;99491.41;5048275;28;20091;-21
2021/05/14 04:47:39;;;;;;;9.18;5.97;;;;;;;14.70;64.02;99505.81;5048388;28;20098;-22
2021/05/14 04:50:05;;;;;;;10.40;6.50;;;;;;;15.03;62.65;99487.72;5048403;28;20090;-22
2021/05/14 04:52:31;;;;;;;11.55;6.30;;;;;;;15.09;63.83;99502.00;5047875;28;20091;-21
2021/05/14 04:54:57;;;;;;;10.82;6.03;;;;;;;15.56;61.27;99503.75;5046920;28;20637;-22
2021/05/14 04:57:23;;;;;;;12.77;6.72;;;;;;;15.71;60.32;99486.84;5048347;28;20112;-21
2021/05/14 04:59:48;;;;;;;9.32;6.13;;;;;;;15.76;60.03;99505.72;5048294;28;20025;-21
2021/05/14 05:02:14;;;;;;;9.85;6.50;;;;;;;16.07;59.72;99501.97;5048045;28;20025;-21
2021/05/14 05:04:39;;;;;;;8.98;6.00;;;;;;;15.61;61.39;99507.28;5048247;28;20880;-22
2021/05/14 05:07:07;;;;;;;8.10;6.03;;;;;;;16.04;60.15;99512.47;5047784;28;20032;-21
2021/05/14 05:09:33;;;;;;;9.05;6.20;;;;;;;15.99;60.31;99532.06;5046497;28;20136;-22
2021/05/14 05:11:58;;;;;;;8.82;6.38;;;;;;;15.63;60.89;99517.72;5047901;28;20033;-22
2021/05/14 05:14:25;;;;;;;6.78;5.38;;;;;;;15.74;60.67;99530.16;5047571;28;20460;-20
2021/05/14 05:16:51;;;;;;;7.75;5.60;;;;;;;15.98;60.14;99540.44;5048054;28;20107;-21
2021/05/14 05:19:16;;;;;;;10.60;6.50;;;;;;;16.31;58.83;99533.72;5047999;28;20029;-22
2021/05/14 05:21:42;;;;;;;11.23;6.05;;;;;;;16.24;58.97;99538.53;5047391;28;20025;-22
2021/05/14 05:24:08;;;;;;;8.50;6.05;;;;;;;16.22;59.28;99546.06;5047727;28;20477;-22
2021/05/14 05:26:34;;;;;;;9.98;6.28;;;;;;;16.04;59.01;99532.09;5047462;28;20075;-21
2021/05/14 05:28:59;;;;;;;8.85;6.32;;;;;;;16.24;58.99;99530.47;5047845;28;20480;-22
2021/05/14 05:31:25;;;;;;;7.60;5.60;;;;;;;16.19;59.17;99546.63;5047828;28;20052;-22
2021/05/14 05:33:50;;;;;;;8.70;6.45;;;;;;;16.19;58.83;99538.56;5047704;28;20041;-22
2021/05/14 05:36:16;;;;;;;9.77;5.78;;;;;;;16.09;59.33;99541.25;5047226;28;20056;-22
2021/05/14 05:38:41;;;;;;;8.05;5.75;;;;;;;16.32;58.66;99543.38;5047231;28;20037;-21
2021/05/14 05:41:07;;;;;;;9.30;5.50;;;;;;;16.41;58.36;99527.53;5047323;28;20405;-21
2021/05/14 05:43:32;;;;;;;12.32;6.03;;;;;;;16.64;57.85;99547.69;5046245;28;20424;-21
2021/05/14 05:45:58;;;;;;;10.85;7.07;;;;;;;16.92;57.16;99538.22;5047650;28;20874;-22
2021/05/14 05:48:23;;;;;;;9.52;6.35;;;;;;;16.89;57.57;99546.84;5047134;28;20036;-21
2021/05/14 05:50:49;;;;;;;9.15;6.03;;;;;;;16.96;57.75;99549.25;5046741;28;20053;-21
2021/05/14 05:53:15;;;;;;;8.60;5.63;;;;;;;16.73;58.17;99543.34;5047491;28;20082;-20
2021/05/14 05:55:41;;;;;;;10.23;6.05;;;;;;;16.78;59.04;99558.69;5047367;28;20846;-22
2021/05/14 05:58:11;;;;;;;8.05;5.47;;;;;;;17.15;58.19;99552.16;5047216;28;20029;-22
2021/05/14 06:00:36;;;;;;;8.57;5.65;;;;;;;17.07;59.23;99553.53;5047085;28;20062;-21
2021/05/14 06:03:03;;;;;;;10.23;5.95;;;;;;;17.72;57.65;99550.03;5047454;28;20501;-22
2021/05/14 06:05:29;;;;;;;9.02;5.80;;;;;;;17.76;58.61;99559.16;5045671;28;20036;-22
2021/05/14 06:07:55;;;;;;;9.38;5.53;;;;;;;17.74;57.77;99547.84;5047666;28;20029;-22
2021/05/14 06:10:20;;;;;;;9.90;6.20;;;;;;;17.80;58.63;99557.53;5046773;28;20036;-22
2021/05/14 06:12:46;;;;;;;10.15;5.70;;;;;;;17.98;58.16;99553.38;5047950;28;20025;-22
2021/05/14 06:15:11;;;;;;;8.13;4.97;;;;;;;18.35;56.50;99562.81;5054016;28;20088;-22
2021/05/14 06:17:42;;;;;;;10.90;5.70;;;;;;;18.19;57.83;99559.44;5053675;28;20025;-22
2021/05/14 06:20:09;;;;;;;9.65;5.40;;;;;;;17.86;58.80;99556.44;5053538;28;20055;-22
2021/05/14 06:22:34;;;;;;;9.25;5.10;;;;;;;17.54;58.66;99538.78;5053341;28;20043;-21
2021/05/14 06:25:00;;;;;;;9.45;5.35;;;;;;;17.90;59.14;99552.09;5053633;28;20037;-22
2021/05/14 06:27:25;;;;;;;7.80;5.20;;;;;;;18.29;56.70;99551.28;5053429;28;20029;-21
2021/05/14 06:29:51;;;;;;;10.00;6.03;;;;;;;18.16;57.22;99543.81;5053475;28;20032;-21
2021/05/14 06:32:17;;;;;;;8.15;4.72;;;;;;;18.36;55.48;99535.53;5053003;28;20032;-21
2021/05/14 06:34:44;;;;;;;8.25;4.63;;;;;;;18.60;56.09;99537.50;5053205;28;20060;-21
2021/05/14 06:37:09;;;;;;;9.98;6.00;;;;;;;18.35;55.47;99536.66;5053494;28;20115;-21
2021/05/14 06:39:35;;;;;;;8.35;4.38;;;;;;;18.46;56.71;99550.84;5053653;28;20536;-22
2021/05/14 06:42:00;;;;;;;8.18;4.05;;;;;;;18.47;55.26;99555.19;5053504;28;20556;-21
2021/05/14 06:44:26;;;;;;;6.50;4.20;;;;;;;18.73;54.33;99546.81;5053301;28;20501;-21
2021/05/14 06:46:51;;;;;;;6.88;3.45;;;;;;;19.06;52.82;99558.66;5053512;28;20029;-22
2021/05/14 06:49:17;;;;;;;5.68;2.63;;;;;;;19.01;49.21;99550.63;5053256;28;20141;-21
2021/05/14 06:51:43;;;;;;;7.13;3.08;;;;;;;19.46;46.10;99572.78;5053573;28;20053;-21
2021/05/14 06:54:09;;;;;;;9.68;2.47;;;;;;;19.79;47.06;99564.81;5053532;28;20100;-21
2021/05/14 06:56:34;;;;;;;4.70;1.92;;;;;;;19.56;46.19;99559.13;5053340;28;20911;-22
2021/05/14 06:59:00;;;;;;;4.53;1.90;;;;;;;19.79;47.37;99545.88;5053294;28;20032;-22
2021/05/14 07:01:27;;;;;;;6.93;2.75;;;;;;;19.94;47.60;99558.34;5053136;28;20069;-21
2021/05/14 07:03:52;;;;;;;3.78;2.22;;;;;;;20.36;44.80;99560.13;5052953;28;20072;-21
2021/05/14 07:06:18;;;;;;;7.50;2.95;;;;;;;19.98;47.21;99552.09;5053043;28;20044;-21
2021/05/14 07:08:45;;;;;;;6.18;3.13;;;;;;;20.71;46.50;99555.22;5053301;28;20527;-22
2021/05/14 07:11:10;;;;;;;6.65;3.00;;;;;;;21.24;46.05;99568.31;5053267;28;20021;-21
2021/05/14 07:13:36;;;;;;;4.88;2.40;;;;;;;21.12;44.92;99550.94;5053168;28;20035;-22
2021/05/14 07:16:01;;;;;;;10.10;2.95;;;;;;;20.64;46.41;99536.66;5053235;28;20060;-21
2021/05/14 07:18:27;;;;;;;6.28;2.10;;;;;;;21.00;45.01;99556.88;5052892;28;20108;-21
2021/05/14 07:20:53;;;;;;;5.38;2.58;;;;;;;21.26;44.43;99557.16;5053024;28;20056;-21
2021/05/14 07:23:19;;;;;;;5.47;2.40;;;;;;;21.36;44.04;99553.44;5052902;28;20485;-21
2021/05/14 07:25:44;;;;;;;4.78;2.10;;;;;;;21.61;43.16;99550.22;5049580;28;20036;-21
2021/05/14 07:28:10;;;;;;;4.88;2.33;;;;;;;21.50;43.17;99558.91;5050211;28;20156;-21
2021/05/14 07:30:35;;;;;;;4.88;2.30;;;;;;;21.90;42.07;99551.75;5049719;28;20029;-20
2021/05/14 07:33:01;;;;;;;5.90;1.60;;;;;;;22.06;41.20;99549.47;5049628;28;20489;-21
2021/05/14 07:35:26;;;;;;;4.72;1.90;;;;;;;21.91;40.60;99547.94;5050260;28;20094;-21
2021/05/14 07:37:52;;;;;;;10.50;1.95;;;;;;;21.74;41.38;99554.03;5049878;28;20040;-21
2021/05/14 07:40:17;;;;;;;4.68;1.63;;;;;;;21.86;40.75;99534.47;5048201;28;20123;-21
2021/05/14 07:42:43;;;;;;;3.65;1.48;;;;;;;22.19;40.06;99554.06;5049566;28;20064;-21
2021/05/14 07:45:09;;;;;;;8.23;1.40;;;;;;;22.00;40.84;99535.22;5049643;28;20029;-21
2021/05/14 07:47:34;;;;;;;5.55;2.00;;;;;;;21.98;40.28;99547.50;5049431;28;20056;-21
2021/05/14 07:50:01;;;;;;;6.32;1.80;;;;;;;22.20;39.12;99541.28;5049381;28;20477;-21
2021/05/14 07:52:27;;;;;;;3.35;1.67;;;;;;;22.50;39.66;99538.94;5049275;28;20499;-21
2021/05/14 07:54:52;;;;;;;5.60;1.58;;;;;;;22.87;39.59;99541.19;5049617;28;20116;-21
2021/05/14 07:57:18;;;;;;;3.83;1.27;;;;;;;22.80;38.43;99546.28;5049320;28;20120;-22
2021/05/14 07:59:44;;;;;;;5.15;1.48;;;;;;;22.54;37.78;99537.22;5049263;28;20029;-21
2021/05/14 08:02:09;;;;;;;4.80;1.63;;;;;;;22.41;39.02;99536.97;5049093;28;20028;-20
2021/05/14 08:04:35;;;;;;;3.20;1.40;;;;;;;22.45;40.00;99539.84;5049059;28;20108;-21
2021/05/14 08:07:00;;;;;;;3.53;1.30;;;;;;;22.22;40.48;99533.63;5049279;28;20183;-21
2021/05/14 08:09:26;;;;;;;3.83;1.13;;;;;;;22.61;37.84;99543.78;5047998;28;20053;-21
2021/05/14 08:11:52;;;;;;;3.20;1.20;;;;;;;22.94;38.26;99545.38;5049118;28;20044;-21
2021/05/14 08:14:18;;;;;;;5.95;1.70;;;;;;;23.31;36.63;99521.50;5049084;28;20075;-22
2021/05/14 08:16:43;;;;;;;2.83;1.40;;;;;;;23.14;38.30;99539.41;5047616;28;20047;-21
2021/05/14 08:19:12;;;;;;;6.00;2.00;;;;;;;23.31;37.70;99541.34;5048690;28;20025;-21
2021/05/14 08:21:47;;;;;;;4.88;1.30;;;;;;;23.84;35.69;99540.34;5049176;28;20080;-21
2021/05/14 08:24:13;;;;;;;4.25;1.55;;;;;;;23.55;37.22;99538.19;5039550;28;20042;-22
2021/05/14 08:26:39;;;;;;;4.75;1.35;;;;;;;23.70;36.96;99545.13;5037479;28;20041;-21
2021/05/14 08:29:05;;;;;;;4.90;1.25;;;;;;;23.99;36.42;99533.59;5039339;28;20039;-22
2021/05/14 08:31:33;;;;;;;6.13;1.23;;;;;;;23.78;36.74;99546.25;5031492;28;20037;-21
2021/05/14 08:33:59;;;;;;;3.63;1.40;;;;;;;24.09;33.82;99539.84;5028914;28;20026;-20
2021/05/14 08:36:24;;;;;;;5.45;2.80;;;;;;;24.43;33.62;99538.97;5028338;28;20037;-21
2021/05/14 08:38:50;;;;;;;5.13;1.30;;;;;;;24.46;34.23;99535.63;5028686;28;20121;-20
2021/05/14 08:41:17;;;;;;;2.60;0.90;;;;;;;24.26;35.16;99532.44;5028553;28;20039;-20
2021/05/14 08:43:42;;;;;;;2.47;0.85;;;;;;;24.29;34.75;99533.72;5028311;28;20029;-20
2021/05/14 08:46:11;;;;;;;5.35;1.20;;;;;;;24.73;33.49;99537.16;5028789;28;20544;-21
2021/05/14 08:48:36;;;;;;;3.22;1.02;;;;;;;24.85;33.08;99533.75;5028591;28;20087;-20
2021/05/14 08:51:06;;;;;;;4.97;1.00;;;;;;;25.23;31.18;99531.03;5028662;28;20053;-21
2021/05/14 08:53:31;;;;;;;3.60;0.90;;;;;;;25.47;31.62;99518.66;5028435;28;20033;-20
2021/05/14 08:55:58;;;;;;;4.75;1.10;;;;;;;25.59;30.79;99513.28;5028788;28;20426;-20
2021/05/14 08:58:23;;;;;;;3.80;0.70;;;;;;;25.56;28.90;99530.34;5028053;28;20029;-21
2021/05/14 09:00:49;;;;;;;3.88;1.17;;;;;;;25.96;31.02;99534.53;5027148;28;20064;-21
2021/05/14 09:03:14;;;;;;;4.18;0.95;;;;;;;25.78;30.54;99528.38;5028228;28;20026;-21
2021/05/14 09:05:40;;;;;;;4.22;0.57;;;;;;;25.42;30.47;99536.03;5028219;28;20112;-21
2021/05/14 09:08:06;;;;;;;4.53;0.73;;;;;;;25.50;31.59;99509.81;5026808;28;20053;-21
2021/05/14 09:10:32;;;;;;;5.03;1.13;;;;;;;26.16;28.75;99524.72;5027645;28;20076;-21
2021/05/14 09:12:59;;;;;;;2.63;0.70;;;;;;;26.45;27.83;99521.81;5027932;28;20056;-21
2021/05/14 09:15:28;;;;;;;2.88;0.77;;;;;;;26.44;27.17;99503.84;5028185;28;20071;-21
2021/05/14 09:18:12;;;;;;;2.63;0.85;;;;;;;26.94;27.50;99520.31;5027898;28;20508;-21
2021/05/14 09:20:49;;;;;;;1.38;0.80;;;;;;;26.82;25.84;99512.91;5027910;28;20034;-21
2021/05/14 09:23:15;;;;;;;2.85;0.73;;;;;;;26.39;26.36;99517.72;5026380;28;20159;-20
2021/05/14 09:25:55;;;;;;;2.65;0.63;;;;;;;26.81;24.76;99523.06;5028021;28;20725;-21
2021/05/14 09:28:25;;;;;;;3.60;0.80;;;;;;;26.96;27.26;99518.03;5027702;28;20071;-21
2021/05/14 09:31:11;;;;;;;3.05;0.70;;;;;;;27.30;25.05;99516.81;5027619;28;20030;-21
2021/05/14 09:33:38;;;;;;;2.53;0.77;;;;;;;26.36;26.86;99496.53;5027602;28;20404;-21
2021/05/14 09:36:11;;;;;;;3.17;1.02;;;;;;;26.65;27.56;99498.31;5027439;28;20489;-23
2021/05/14 09:38:41;;;;;;;3.58;1.05;;;;;;;26.61;27.55;99511.06;5027964;28;20196;-23
2021/05/14 09:41:13;;;;;;;3.05;0.95;;;;;;;26.90;27.01;99513.94;5027509;28;20051;-21
2021/05/14 09:43:59;;;;;;;2.65;0.90;;;;;;;27.13;28.36;99506.84;5026174;28;20493;-20
2021/05/14 09:46:37;;;;;;;2.08;0.77;;;;;;;27.13;25.89;99512.31;5027264;28;20041;-21
2021/05/14 09:49:04;;;;;;;3.03;0.80;;;;;;;27.10;24.49;99507.53;5027062;28;20045;-21
2021/05/14 09:51:31;;;;;;;2.30;0.80;;;;;;;27.20;25.39;99503.56;5027242;28;20057;-21
2021/05/14 09:53:56;;;;;;;4.00;0.90;;;;;;;26.80;27.19;99488.63;5026060;28;20485;-21
2021/05/14 09:56:32;;;;;;;2.00;0.80;;;;;;;26.43;26.29;99479.56;5027256;28;20044;-21
2021/05/14 09:58:59;;;;;;;1.83;0.70;;;;;;;26.46;28.14;99482.44;5027108;28;20025;-21
2021/05/14 10:01:25;;;;;;;2.75;0.90;;;;;;;26.60;28.17;99497.72;5027462;28;20092;-21
2021/05/14 10:03:51;;;;;;;2.92;0.90;;;;;;;27.02;26.26;99506.53;5009811;28;20038;-21
2021/05/14 10:06:17;;;;;;;5.20;1.00;;;;;;;26.58;27.48;99508.22;5027090;28;20029;-21
2021/05/14 10:08:48;;;;;;;2.63;0.68;;;;;;;26.02;29.78;99503.94;5027363;28;20100;-21
2021/05/14 10:11:14;;;;;;;1.85;0.70;;;;;;;26.48;30.86;99503.16;5025713;28;20481;-21
2021/05/14 10:13:41;;;;;;;3.88;1.00;;;;;;;26.77;28.78;99494.78;5027174;28;20037;-21
2021/05/14 10:16:06;;;;;;;1.80;0.70;;;;;;;27.61;27.20;99507.94;5026095;28;20048;-21
2021/05/14 10:18:33;;;;;;;8.23;1.20;;;;;;;27.44;29.04;99511.75;5027279;28;20535;-21
2021/05/14 10:20:58;;;;;;;3.85;0.77;;;;;;;27.40;27.53;99510.03;5026249;28;20033;-21
2021/05/14 10:23:29;;;;;;;1.67;0.77;;;;;;;26.44;28.90;99508.53;5025569;28;20123;-21
2021/05/14 10:25:57;;;;;;;3.33;0.88;;;;;;;26.45;30.41;99519.09;5026890;28;20490;-20
2021/05/14 10:28:24;;;;;;;3.53;0.82;;;;;;;26.73;29.28;99506.75;5026979;28;20089;-20
2021/05/14 10:31:09;;;;;;;2.65;0.93;;;;;;;27.51;27.40;99513.91;5027146;28;20099;-20
2021/05/14 10:33:53;;;;;;;1.92;0.80;;;;;;;28.06;27.38;99519.78;5027293;28;20037;-21
2021/05/14 10:36:21;;;;;;;2.47;0.68;;;;;;;28.50;26.78;99508.81;5026536;28;20037;-21
2021/05/14 10:39:06;;;;;;;4.55;1.08;;;;;;;28.83;25.77;99496.69;5027092;28;20065;-21
2021/05/14 10:41:32;;;;;;;3.30;0.77;;;;;;;28.30;27.97;99496.94;5026851;28;20482;-21
2021/05/14 10:44:01;;;;;;;3.17;1.25;;;;;;;26.55;26.46;99497.94;5026965;28;20048;-21
2021/05/14 10:46:28;;;;;;;2.75;0.88;;;;;;;25.98;28.34;99497.56;5026751;28;20064;-21
2021/05/14 10:49:12;;;;;;;4.40;0.80;;;;;;;26.48;29.95;99486.75;5026452;28;20040;-21
2021/05/14 10:51:58;;;;;;;3.53;0.90;;;;;;;27.02;26.76;99500.25;5026881;28;20115;-21
2021/05/14 10:54:39;;;;;;;3.60;0.70;;;;;;;27.36;27.06;99495.44;5026791;28;20501;-20
2021/05/14 10:57:05;;;;;;;3.28;0.80;;;;;;;27.43;26.48;99498.41;5026571;28;20040;-21
2021/05/14 10:59:35;;;;;;;1.90;0.70;;;;;;;27.47;28.19;99499.31;5027841;28;20040;-20
2021/05/14 11:02:01;;;;;;;2.00;0.75;;;;;;;27.53;27.31;99481.50;5030637;28;20544;-21
2021/05/14 11:04:40;;;;;;;6.07;1.13;;;;;;;27.44;28.01;99475.34;5029279;28;20100;-21
2021/05/14 11:07:06;;;;;;;4.00;0.90;;;;;;;27.57;27.00;99487.06;5030354;28;20037;-21
2021/05/14 11:09:31;;;;;;;7.00;0.90;;;;;;;27.60;27.16;99489.94;5030372;28;20073;-20
2021/05/14 11:12:04;;;;;;;2.22;0.52;;;;;;;27.74;25.79;99485.97;5030282;28;20704;-21
2021/05/14 11:14:43;;;;;;;3.65;0.80;;;;;;;28.08;25.56;99475.59;5030270;28;20026;-21
2021/05/14 11:17:09;;;;;;;1.35;0.70;;;;;;;27.76;24.88;99472.72;5030156;28;20528;-21
2021/05/14 11:19:46;;;;;;;3.37;1.00;;;;;;;27.37;25.58;99464.19;5030183;28;20022;-20
2021/05/14 11:22:14;;;;;;;4.20;1.05;;;;;;;26.93;27.68;99475.75;5029917;28;20021;-20
2021/05/14 11:25:07;;;;;;;;;;;;;;;27.64;27.36;99488.09;5030706;28;20428;-21
2021/05/14 11:27:36;;;;;;;4.20;0.98;;;;;;;28.46;26.74;99480.47;5030493;28;20452;-21
2021/05/14 11:30:08;;;;;;;2.97;0.80;;;;;;;29.37;25.82;99486.97;5030255;28;20087;-21
2021/05/14 11:32:38;;;;;;;3.10;1.05;;;;;;;29.86;24.07;99486.44;5029399;28;20517;-30
2021/05/14 11:35:07;;;;;;;3.55;1.08;;;;;;;29.65;25.55;99493.06;5029583;28;20538;-21
2021/05/14 11:38:07;;;;;;;2.83;1.10;;;;;;;29.82;26.06;99491.06;5029689;28;20025;-21